Eviapetrol I — SY5401 — position and weather

sailwx.info

Track history (hours):
 
Tides and Currents Weather Stations Pressure Air Temp Water Temp Dewpoint Dewpoint Depression Visibility Wind Speed Wind Dir Waves Ship Positions

Eviapetrol I

Last reported at 2017-Jan-20 13:14 UTC. Time now 2017-Jan-20 20:15 UTC.
Position N 39°56' E 024°46'.

Length 75 m; draft 4.6 m.

Type: Tanker. MMSI: 240285000.

Date/timePositionNaut miles runAvg speedWind from/ knotsBaromVisibWave heightAir tempDewpointWater temp
2017-Jan-20 13:14N 39°56' E 024°46'5 6.9
2017-Jan-20 12:32N 40°00' E 024°42'8 7.8
2017-Jan-20 11:32N 40°07' E 024°38'17 8.5
2017-Jan-20 09:33N 40°23' E 024°33'8 8.4
2017-Jan-20 08:33N 40°32' E 024°33'5 5.5
2017-Jan-20 07:33N 40°37' E 024°35'0 0.0
2017-Jan-20 06:33N 40°37' E 024°35'0 0.0
2017-Jan-20 05:33N 40°37' E 024°35'0 0.0
2017-Jan-20 04:33N 40°37' E 024°35'0 0.1
2017-Jan-20 03:33N 40°37' E 024°35'0 0.1
2017-Jan-20 02:32N 40°37' E 024°35'0 0.0
2017-Jan-20 01:31N 40°37' E 024°35'0 0.0
2017-Jan-20 00:33N 40°37' E 024°35'0 0.0
2017-Jan-19 23:33N 40°37' E 024°35'0 0.0
2017-Jan-19 22:33N 40°37' E 024°35'0 0.0
2017-Jan-19 21:33N 40°37' E 024°35'0 0.1
2017-Jan-19 20:33N 40°37' E 024°35'0 0.0
2017-Jan-19 19:33N 40°37' E 024°35'0 0.1
2017-Jan-19 18:33N 40°37' E 024°35'0 0.0
2017-Jan-19 17:33N 40°37' E 024°35'0 0.0
2017-Jan-19 16:33N 40°37' E 024°35'0 0.0
2017-Jan-19 15:33N 40°37' E 024°35'0 0.0
2017-Jan-19 14:33N 40°37' E 024°35'0 0.0
2017-Jan-19 13:33N 40°37' E 024°35'0 0.0
2017-Jan-19 12:33N 40°37' E 024°35'0 0.0
2017-Jan-19 11:32N 40°37' E 024°35'0 0.0
2017-Jan-19 10:33N 40°37' E 024°35'0 0.0
2017-Jan-19 09:33N 40°37' E 024°35'0 0.0
2017-Jan-19 08:33N 40°37' E 024°35'0 0.0
2017-Jan-19 07:33N 40°37' E 024°35'0 0.0
2017-Jan-19 06:22N 40°37' E 024°35'0 0.0
2017-Jan-19 05:29N 40°37' E 024°35'0 0.0
2017-Jan-19 04:24N 40°37' E 024°35'0 0.0
2017-Jan-19 03:33N 40°37' E 024°35'0 0.0
2017-Jan-19 02:33N 40°37' E 024°35'0 0.0
2017-Jan-19 01:33N 40°37' E 024°35'0 0.0
2017-Jan-19 00:33N 40°37' E 024°35'0 0.0
2017-Jan-18 23:32N 40°37' E 024°35'0 0.0
2017-Jan-18 22:33N 40°37' E 024°35'0 0.0
2017-Jan-18 21:33N 40°37' E 024°35'0 0.0
2017-Jan-18 20:33N 40°37' E 024°35'0 0.0
2017-Jan-18 19:33N 40°37' E 024°35'0 0.0
2017-Jan-18 18:33N 40°37' E 024°35'0 0.0
2017-Jan-18 17:33N 40°37' E 024°35'0 0.0
2017-Jan-18 16:33N 40°37' E 024°35'0 0.1
2017-Jan-18 15:33N 40°37' E 024°35'0 0.0
2017-Jan-18 14:33N 40°37' E 024°35'0 0.0
2017-Jan-18 13:33N 40°37' E 024°35'0 0.0
2017-Jan-18 12:33N 40°37' E 024°35'0 0.1
2017-Jan-18 11:33N 40°37' E 024°35'0 0.0
2017-Jan-18 10:33N 40°37' E 024°35'0 0.0
2017-Jan-18 09:33N 40°37' E 024°35'0 0.0
2017-Jan-18 08:33N 40°37' E 024°35'0 0.0
2017-Jan-18 07:33N 40°37' E 024°35'0 0.0
2017-Jan-18 06:33N 40°37' E 024°35'0 0.0
2017-Jan-18 05:33N 40°37' E 024°35'0 0.0
2017-Jan-18 04:33N 40°37' E 024°35'0 0.1
2017-Jan-18 03:33N 40°37' E 024°35'0 0.0
2017-Jan-18 02:33N 40°37' E 024°35'1 1.4
2017-Jan-18 01:33N 40°36' E 024°34'7 7.2
2017-Jan-18 00:33N 40°29' E 024°32'6 6.2
2017-Jan-17 23:33N 40°35' E 024°31'10 9.6
2017-Jan-17 22:33N 40°43' E 024°26'10 9.8
2017-Jan-17 21:33N 40°53' E 024°30'5 4.9
2017-Jan-17 20:33N 40°57' E 024°33'0 0.0
2017-Jan-17 19:31N 40°57' E 024°33'0 0.0
2017-Jan-17 18:31N 40°57' E 024°33'0 0.0
2017-Jan-17 17:31N 40°57' E 024°33'0 0.0
2017-Jan-17 16:31N 40°57' E 024°33'0 0.0
2017-Jan-17 15:31N 40°57' E 024°33'0 0.0
2017-Jan-17 14:31N 40°57' E 024°33'0 0.0
2017-Jan-17 13:31N 40°57' E 024°33'0 0.0
2017-Jan-17 12:31N 40°57' E 024°33'0 0.0
2017-Jan-17 11:31N 40°57' E 024°33'0 0.0
2017-Jan-17 10:31N 40°57' E 024°33'0 0.0
2017-Jan-17 09:31N 40°57' E 024°33'0 0.0
2017-Jan-17 08:31N 40°57' E 024°33'0 0.0
2017-Jan-17 07:34N 40°57' E 024°33'3 3.1
2017-Jan-17 06:34N 40°55' E 024°29'9 9.0
2017-Jan-17 05:34N 40°48' E 024°23'7 7.2
2017-Jan-17 04:33N 40°41' E 024°26'9 8.9
2017-Jan-17 03:34N 40°32' E 024°30'8 7.7
2017-Jan-17 02:34N 40°25' E 024°33'7 7.3
2017-Jan-17 01:33N 40°18' E 024°34'8 7.9
2017-Jan-17 00:34N 40°10' E 024°36'153 7.9
2017-Jan-16 05:04N 37°38' E 024°07'5 8.6
2017-Jan-16 04:32N 37°37' E 024°02'9 9.6
2017-Jan-16 03:33N 37°38' E 023°50'9 8.7
2017-Jan-16 02:33N 37°39' E 023°39'9 9.1
2017-Jan-16 01:34N 37°40' E 023°28'9 8.6
2017-Jan-16 00:34N 37°42' E 023°17'10 9.6
2017-Jan-15 23:33N 37°50' E 023°11'6 6.2
2017-Jan-15 22:31N 37°55' E 023°05'0 0.0
2017-Jan-15 21:29N 37°55' E 023°05'0 0.0
2017-Jan-15 20:32N 37°55' E 023°05'0 0.0
2017-Jan-15 19:06N 37°55' E 023°05'0 0.0
2017-Jan-15 18:29N 37°55' E 023°05'0 0.0
2017-Jan-15 17:28N 37°55' E 023°05'0 0.0
2017-Jan-15 15:28N 37°55' E 023°05'0 0.0
2017-Jan-15 13:31N 37°55' E 023°05'0 0.0
2017-Jan-15 12:24N 37°55' E 023°05'0 0.0
2017-Jan-15 10:30N 37°55' E 023°05'0 0.2
2017-Jan-15 09:17N 37°55' E 023°06'1 0.5
2017-Jan-15 07:33N 37°55' E 023°05'0 0.0
2017-Jan-15 06:28N 37°55' E 023°05'0 0.0
2017-Jan-15 05:23N 37°55' E 023°05'0 0.0
2017-Jan-15 04:29N 37°55' E 023°05'0 0.0
2017-Jan-15 03:23N 37°55' E 023°05'0 0.0
2017-Jan-15 02:23N 37°55' E 023°05'0 0.0
2017-Jan-15 01:29N 37°55' E 023°05'0 0.0
2017-Jan-15 00:32N 37°55' E 023°05'0 0.0
2017-Jan-14 23:23N 37°55' E 023°05'0 0.0
2017-Jan-14 22:32N 37°55' E 023°05'0 0.0
2017-Jan-14 21:32N 37°55' E 023°05'0 0.0
2017-Jan-14 20:29N 37°55' E 023°05'0 0.0
2017-Jan-14 19:32N 37°55' E 023°05'0 0.0
2017-Jan-14 18:29N 37°55' E 023°05'0 0.0
2017-Jan-14 17:26N 37°55' E 023°05'0 0.0
2017-Jan-14 16:32N 37°55' E 023°05'0 0.0
2017-Jan-14 15:20N 37°55' E 023°05'0 0.0
2017-Jan-14 14:29N 37°55' E 023°05'0 0.3
2017-Jan-14 13:33N 37°55' E 023°05'8 8.3
2017-Jan-14 12:33N 37°53' E 023°15'9 9.3
2017-Jan-14 11:33N 37°51' E 023°27'7 7.0
2017-Jan-14 10:33N 37°55' E 023°34'0 0.3
2017-Jan-14 09:31N 37°56' E 023°34'0 0.0
2017-Jan-14 08:31N 37°56' E 023°34'0 0.0
2017-Jan-14 07:31N 37°56' E 023°34'2 2.0
2017-Jan-14 06:33N 37°54' E 023°36'1010.1
2017-Jan-14 05:33N 37°46' E 023°42'10 9.9
2017-Jan-14 04:33N 37°36' E 023°46'15 0.3
2017-Jan-12 05:29N 37°24' E 023°35'9 9.5
2017-Jan-12 04:33N 37°32' E 023°32'10 9.9
2017-Jan-12 03:33N 37°41' E 023°25'1010.0
2017-Jan-12 02:34N 37°51' E 023°24'8 8.4
2017-Jan-12 01:34N 37°59' E 023°25'6 6.3
2017-Jan-12 00:33N 38°02' E 023°32'0 0.0
2017-Jan-11 23:30N 38°02' E 023°32'0 0.0
2017-Jan-11 22:33N 38°02' E 023°32'0 0.0
2017-Jan-11 21:33N 38°02' E 023°32'0 0.0
2017-Jan-11 20:33N 38°02' E 023°32'0 0.0
2017-Jan-11 19:33N 38°02' E 023°32'0 0.1
2017-Jan-11 18:33N 38°02' E 023°32'0 0.0
2017-Jan-11 17:33N 38°02' E 023°32'0 0.0
2017-Jan-11 16:33N 38°02' E 023°32'0 0.0
2017-Jan-11 15:33N 38°02' E 023°32'0 0.0
2017-Jan-11 14:33N 38°02' E 023°32'0 0.0
2017-Jan-11 13:33N 38°02' E 023°32'0 0.0
2017-Jan-11 12:32N 38°02' E 023°32'0 0.0
2017-Jan-11 11:33N 38°02' E 023°32'0 0.0
2017-Jan-11 10:33N 38°02' E 023°32'0 0.0
2017-Jan-11 09:33N 38°02' E 023°32'0 0.1
2017-Jan-11 08:33N 38°02' E 023°32'0 0.0
2017-Jan-11 07:27N 38°02' E 023°32'0 0.0
2017-Jan-11 06:33N 38°02' E 023°32'0 0.0
2017-Jan-11 05:33N 38°02' E 023°32'0 0.0
2017-Jan-11 04:33N 38°02' E 023°32'2 1.9
2017-Jan-11 03:33N 38°02' E 023°34'1 1.0
2017-Jan-11 02:31N 38°02' E 023°36'0 0.0
2017-Jan-11 01:31N 38°02' E 023°36'0 0.0
2017-Jan-11 00:32N 38°02' E 023°36'0 0.0
2017-Jan-10 23:32N 38°02' E 023°36'0 0.0
2017-Jan-10 22:32N 38°02' E 023°36'0 0.0
2017-Jan-10 21:31N 38°02' E 023°36'0 0.0
2017-Jan-10 20:31N 38°02' E 023°36'0 0.0
2017-Jan-10 19:31N 38°02' E 023°36'0 0.0
2017-Jan-10 18:32N 38°02' E 023°36'0 0.0
2017-Jan-10 17:28N 38°02' E 023°36'0 0.0
2017-Jan-10 16:31N 38°02' E 023°36'0 0.1
2017-Jan-10 15:32N 38°02' E 023°36'3 2.8
2017-Jan-10 14:32N 38°02' E 023°32'0 0.1
2017-Jan-10 13:32N 38°02' E 023°32'  
Track history (hours):
 
Tides and Currents Weather Stations Pressure Air Temp Water Temp Dewpoint Dewpoint Depression Visibility Wind Speed Wind Dir Waves Ship Positions

Eviapetrol I

Last reported at 2017-Jan-20 13:14 UTC. Time now 2017-Jan-20 20:15 UTC.
Position N 39°56' E 024°46'.

Length 75 m; draft 4.6 m.

Type: Tanker. MMSI: 240285000.

Date/timePositionNaut miles runAvg speedWind from/ knotsBaromVisibWave heightAir tempDewpointWater temp
2017-Jan-20 13:14N 39°56' E 024°46'5 6.9
2017-Jan-20 12:32N 40°00' E 024°42'8 7.8
2017-Jan-20 11:32N 40°07' E 024°38'17 8.5
2017-Jan-20 09:33N 40°23' E 024°33'8 8.4
2017-Jan-20 08:33N 40°32' E 024°33'5 5.5
2017-Jan-20 07:33N 40°37' E 024°35'0 0.0
2017-Jan-20 06:33N 40°37' E 024°35'0 0.0
2017-Jan-20 05:33N 40°37' E 024°35'0 0.0
2017-Jan-20 04:33N 40°37' E 024°35'0 0.1
2017-Jan-20 03:33N 40°37' E 024°35'0 0.1
2017-Jan-20 02:32N 40°37' E 024°35'0 0.0
2017-Jan-20 01:31N 40°37' E 024°35'0 0.0
2017-Jan-20 00:33N 40°37' E 024°35'0 0.0
2017-Jan-19 23:33N 40°37' E 024°35'0 0.0
2017-Jan-19 22:33N 40°37' E 024°35'0 0.0
2017-Jan-19 21:33N 40°37' E 024°35'0 0.1
2017-Jan-19 20:33N 40°37' E 024°35'0 0.0
2017-Jan-19 19:33N 40°37' E 024°35'0 0.1
2017-Jan-19 18:33N 40°37' E 024°35'0 0.0
2017-Jan-19 17:33N 40°37' E 024°35'0 0.0
2017-Jan-19 16:33N 40°37' E 024°35'0 0.0
2017-Jan-19 15:33N 40°37' E 024°35'0 0.0
2017-Jan-19 14:33N 40°37' E 024°35'0 0.0
2017-Jan-19 13:33N 40°37' E 024°35'0 0.0
2017-Jan-19 12:33N 40°37' E 024°35'0 0.0
2017-Jan-19 11:32N 40°37' E 024°35'0 0.0
2017-Jan-19 10:33N 40°37' E 024°35'0 0.0
2017-Jan-19 09:33N 40°37' E 024°35'0 0.0
2017-Jan-19 08:33N 40°37' E 024°35'0 0.0
2017-Jan-19 07:33N 40°37' E 024°35'0 0.0
2017-Jan-19 06:22N 40°37' E 024°35'0 0.0
2017-Jan-19 05:29N 40°37' E 024°35'0 0.0
2017-Jan-19 04:24N 40°37' E 024°35'0 0.0
2017-Jan-19 03:33N 40°37' E 024°35'0 0.0
2017-Jan-19 02:33N 40°37' E 024°35'0 0.0
2017-Jan-19 01:33N 40°37' E 024°35'0 0.0
2017-Jan-19 00:33N 40°37' E 024°35'0 0.0
2017-Jan-18 23:32N 40°37' E 024°35'0 0.0
2017-Jan-18 22:33N 40°37' E 024°35'0 0.0
2017-Jan-18 21:33N 40°37' E 024°35'0 0.0
2017-Jan-18 20:33N 40°37' E 024°35'0 0.0
2017-Jan-18 19:33N 40°37' E 024°35'0 0.0
2017-Jan-18 18:33N 40°37' E 024°35'0 0.0
2017-Jan-18 17:33N 40°37' E 024°35'0 0.0
2017-Jan-18 16:33N 40°37' E 024°35'0 0.1
2017-Jan-18 15:33N 40°37' E 024°35'0 0.0
2017-Jan-18 14:33N 40°37' E 024°35'0 0.0
2017-Jan-18 13:33N 40°37' E 024°35'0 0.0
2017-Jan-18 12:33N 40°37' E 024°35'0 0.1
2017-Jan-18 11:33N 40°37' E 024°35'0 0.0
2017-Jan-18 10:33N 40°37' E 024°35'0 0.0
2017-Jan-18 09:33N 40°37' E 024°35'0 0.0
2017-Jan-18 08:33N 40°37' E 024°35'0 0.0
2017-Jan-18 07:33N 40°37' E 024°35'0 0.0
2017-Jan-18 06:33N 40°37' E 024°35'0 0.0
2017-Jan-18 05:33N 40°37' E 024°35'0 0.0
2017-Jan-18 04:33N 40°37' E 024°35'0 0.1
2017-Jan-18 03:33N 40°37' E 024°35'0 0.0
2017-Jan-18 02:33N 40°37' E 024°35'1 1.4
2017-Jan-18 01:33N 40°36' E 024°34'7 7.2
2017-Jan-18 00:33N 40°29' E 024°32'6 6.2
2017-Jan-17 23:33N 40°35' E 024°31'10 9.6
2017-Jan-17 22:33N 40°43' E 024°26'10 9.8
2017-Jan-17 21:33N 40°53' E 024°30'5 4.9
2017-Jan-17 20:33N 40°57' E 024°33'0 0.0
2017-Jan-17 19:31N 40°57' E 024°33'0 0.0
2017-Jan-17 18:31N 40°57' E 024°33'0 0.0
2017-Jan-17 17:31N 40°57' E 024°33'0 0.0
2017-Jan-17 16:31N 40°57' E 024°33'0 0.0
2017-Jan-17 15:31N 40°57' E 024°33'0 0.0
2017-Jan-17 14:31N 40°57' E 024°33'0 0.0
2017-Jan-17 13:31N 40°57' E 024°33'0 0.0
2017-Jan-17 12:31N 40°57' E 024°33'0 0.0
2017-Jan-17 11:31N 40°57' E 024°33'0 0.0
2017-Jan-17 10:31N 40°57' E 024°33'0 0.0
2017-Jan-17 09:31N 40°57' E 024°33'0 0.0
2017-Jan-17 08:31N 40°57' E 024°33'0 0.0
2017-Jan-17 07:34N 40°57' E 024°33'3 3.1
2017-Jan-17 06:34N 40°55' E 024°29'9 9.0
2017-Jan-17 05:34N 40°48' E 024°23'7 7.2
2017-Jan-17 04:33N 40°41' E 024°26'9 8.9
2017-Jan-17 03:34N 40°32' E 024°30'8 7.7
2017-Jan-17 02:34N 40°25' E 024°33'7 7.3
2017-Jan-17 01:33N 40°18' E 024°34'8 7.9
2017-Jan-17 00:34N 40°10' E 024°36'153 7.9
2017-Jan-16 05:04N 37°38' E 024°07'5 8.6
2017-Jan-16 04:32N 37°37' E 024°02'9 9.6
2017-Jan-16 03:33N 37°38' E 023°50'9 8.7
2017-Jan-16 02:33N 37°39' E 023°39'9 9.1
2017-Jan-16 01:34N 37°40' E 023°28'9 8.6
2017-Jan-16 00:34N 37°42' E 023°17'10 9.6
2017-Jan-15 23:33N 37°50' E 023°11'6 6.2
2017-Jan-15 22:31N 37°55' E 023°05'0 0.0
2017-Jan-15 21:29N 37°55' E 023°05'0 0.0
2017-Jan-15 20:32N 37°55' E 023°05'0 0.0
2017-Jan-15 19:06N 37°55' E 023°05'0 0.0
2017-Jan-15 18:29N 37°55' E 023°05'0 0.0
2017-Jan-15 17:28N 37°55' E 023°05'0 0.0
2017-Jan-15 15:28N 37°55' E 023°05'0 0.0
2017-Jan-15 13:31N 37°55' E 023°05'0 0.0
2017-Jan-15 12:24N 37°55' E 023°05'0 0.0
2017-Jan-15 10:30N 37°55' E 023°05'0 0.2
2017-Jan-15 09:17N 37°55' E 023°06'1 0.5
2017-Jan-15 07:33N 37°55' E 023°05'0 0.0
2017-Jan-15 06:28N 37°55' E 023°05'0 0.0
2017-Jan-15 05:23N 37°55' E 023°05'0 0.0
2017-Jan-15 04:29N 37°55' E 023°05'0 0.0
2017-Jan-15 03:23N 37°55' E 023°05'0 0.0
2017-Jan-15 02:23N 37°55' E 023°05'0 0.0
2017-Jan-15 01:29N 37°55' E 023°05'0 0.0
2017-Jan-15 00:32N 37°55' E 023°05'0 0.0
2017-Jan-14 23:23N 37°55' E 023°05'0 0.0
2017-Jan-14 22:32N 37°55' E 023°05'0 0.0
2017-Jan-14 21:32N 37°55' E 023°05'0 0.0
2017-Jan-14 20:29N 37°55' E 023°05'0 0.0
2017-Jan-14 19:32N 37°55' E 023°05'0 0.0
2017-Jan-14 18:29N 37°55' E 023°05'0 0.0
2017-Jan-14 17:26N 37°55' E 023°05'0 0.0
2017-Jan-14 16:32N 37°55' E 023°05'0 0.0
2017-Jan-14 15:20N 37°55' E 023°05'0 0.0
2017-Jan-14 14:29N 37°55' E 023°05'0 0.3
2017-Jan-14 13:33N 37°55' E 023°05'8 8.3
2017-Jan-14 12:33N 37°53' E 023°15'9 9.3
2017-Jan-14 11:33N 37°51' E 023°27'7 7.0
2017-Jan-14 10:33N 37°55' E 023°34'0 0.3
2017-Jan-14 09:31N 37°56' E 023°34'0 0.0
2017-Jan-14 08:31N 37°56' E 023°34'0 0.0
2017-Jan-14 07:31N 37°56' E 023°34'2 2.0
2017-Jan-14 06:33N 37°54' E 023°36'1010.1
2017-Jan-14 05:33N 37°46' E 023°42'10 9.9
2017-Jan-14 04:33N 37°36' E 023°46'15 0.3
2017-Jan-12 05:29N 37°24' E 023°35'9 9.5
2017-Jan-12 04:33N 37°32' E 023°32'10 9.9
2017-Jan-12 03:33N 37°41' E 023°25'1010.0
2017-Jan-12 02:34N 37°51' E 023°24'8 8.4
2017-Jan-12 01:34N 37°59' E 023°25'6 6.3
2017-Jan-12 00:33N 38°02' E 023°32'0 0.0
2017-Jan-11 23:30N 38°02' E 023°32'0 0.0
2017-Jan-11 22:33N 38°02' E 023°32'0 0.0
2017-Jan-11 21:33N 38°02' E 023°32'0 0.0
2017-Jan-11 20:33N 38°02' E 023°32'0 0.0
2017-Jan-11 19:33N 38°02' E 023°32'0 0.1
2017-Jan-11 18:33N 38°02' E 023°32'0 0.0
2017-Jan-11 17:33N 38°02' E 023°32'0 0.0
2017-Jan-11 16:33N 38°02' E 023°32'0 0.0
2017-Jan-11 15:33N 38°02' E 023°32'0 0.0
2017-Jan-11 14:33N 38°02' E 023°32'0 0.0
2017-Jan-11 13:33N 38°02' E 023°32'0 0.0
2017-Jan-11 12:32N 38°02' E 023°32'0 0.0
2017-Jan-11 11:33N 38°02' E 023°32'0 0.0
2017-Jan-11 10:33N 38°02' E 023°32'0 0.0
2017-Jan-11 09:33N 38°02' E 023°32'0 0.1
2017-Jan-11 08:33N 38°02' E 023°32'0 0.0
2017-Jan-11 07:27N 38°02' E 023°32'0 0.0
2017-Jan-11 06:33N 38°02' E 023°32'0 0.0
2017-Jan-11 05:33N 38°02' E 023°32'0 0.0
2017-Jan-11 04:33N 38°02' E 023°32'2 1.9
2017-Jan-11 03:33N 38°02' E 023°34'1 1.0
2017-Jan-11 02:31N 38°02' E 023°36'0 0.0
2017-Jan-11 01:31N 38°02' E 023°36'0 0.0
2017-Jan-11 00:32N 38°02' E 023°36'0 0.0
2017-Jan-10 23:32N 38°02' E 023°36'0 0.0
2017-Jan-10 22:32N 38°02' E 023°36'0 0.0
2017-Jan-10 21:31N 38°02' E 023°36'0 0.0
2017-Jan-10 20:31N 38°02' E 023°36'0 0.0
2017-Jan-10 19:31N 38°02' E 023°36'0 0.0
2017-Jan-10 18:32N 38°02' E 023°36'0 0.0
2017-Jan-10 17:28N 38°02' E 023°36'0 0.0
2017-Jan-10 16:31N 38°02' E 023°36'0 0.1
2017-Jan-10 15:32N 38°02' E 023°36'3 2.8
2017-Jan-10 14:32N 38°02' E 023°32'0 0.1
2017-Jan-10 13:32N 38°02' E 023°32'  

Dump ship's entire track history